Time;durP1;ratioP1;P1;durP2;ratioP2;P2;SDS_P1;SDS_P2;PMS_P1;PMS_P2;Temp;Humidity;BMP_temperature;BMP_pressure;BME280_temperature;BME280_humidity;BME280_pressure;Samples;Min_cycle;Max_cycle;Signal;HPM_P1;HPM_P2
2021/04/05 00:00:31;;;;;;;47.28;25.08;;;;;;;-0.25;88.55;99107.94;3554373;27;20049;-53
2021/04/05 00:02:13;;;;;;;52.17;25.52;;;;;;;-0.23;88.40;99122.53;3550824;27;20043;-51
2021/04/05 00:03:56;;;;;;;61.67;26.27;;;;;;;-0.21;88.83;99120.06;3554211;27;20055;-52
2021/04/05 00:05:38;;;;;;;50.17;25.55;;;;;;;-0.23;88.71;99116.56;3552819;27;20134;-50
2021/04/05 00:07:20;;;;;;;50.05;23.95;;;;;;;-0.24;88.67;99117.34;3553489;27;20047;-51
2021/04/05 00:09:01;;;;;;;51.47;24.30;;;;;;;-0.25;88.70;99119.03;3551259;27;20050;-53
2021/04/05 00:10:45;;;;;;;51.38;24.42;;;;;;;-0.23;88.91;99119.13;3550856;27;20081;-49
2021/04/05 00:12:27;;;;;;;54.47;25.13;;;;;;;-0.24;88.69;99112.25;3553785;27;20415;-52
2021/04/05 00:14:08;;;;;;;47.10;23.70;;;;;;;-0.25;88.82;99113.94;3548894;27;20511;-51
2021/04/05 00:15:50;;;;;;;50.45;24.38;;;;;;;-0.26;88.78;99104.53;3554353;27;20047;-51
2021/04/05 00:17:31;;;;;;;52.08;26.02;;;;;;;-0.26;88.53;99109.63;3550359;27;20400;-50
2021/04/05 00:19:13;;;;;;;51.40;24.65;;;;;;;-0.28;88.55;99103.59;3553213;27;20058;-52
2021/04/05 00:20:57;;;;;;;49.15;23.27;;;;;;;-0.27;88.70;99099.34;3551301;27;20059;-52
2021/04/05 00:22:39;;;;;;;49.42;23.02;;;;;;;-0.27;88.54;99099.34;3551064;27;20070;-53
2021/04/05 00:24:21;;;;;;;45.50;24.15;;;;;;;-0.28;88.50;99102.72;3553943;27;20057;-49
2021/04/05 00:26:03;;;;;;;47.25;24.45;;;;;;;-0.30;88.49;99097.56;3552333;27;20084;-53
2021/04/05 00:27:45;;;;;;;49.78;23.15;;;;;;;-0.30;88.39;99094.13;3554230;27;20051;-50
2021/04/05 00:29:31;;;;;;;48.58;22.45;;;;;;;-0.31;88.49;99100.03;3552585;27;20050;-51
2021/04/05 00:31:12;;;;;;;45.85;22.98;;;;;;;-0.34;88.37;99096.53;3552073;27;20054;-53
2021/04/05 00:32:54;;;;;;;49.25;23.35;;;;;;;-0.36;88.52;99097.25;3552508;27;20050;-50
2021/04/05 00:34:35;;;;;;;44.92;22.10;;;;;;;-0.31;89.23;99094.94;3550370;27;20046;-51
2021/04/05 00:36:16;;;;;;;39.35;20.25;;;;;;;-0.29;89.61;99093.31;3553770;27;20050;-52
2021/04/05 00:37:58;;;;;;;32.20;17.42;;;;;;;-0.24;89.53;99094.41;3550452;27;20042;-52
2021/04/05 00:39:40;;;;;;;34.60;18.92;;;;;;;-0.21;89.45;99092.88;3553953;27;20046;-53
2021/04/05 00:41:22;;;;;;;37.95;18.92;;;;;;;-0.19;89.23;99090.41;3550469;27;20078;-48
2021/04/05 00:43:05;;;;;;;40.97;20.25;;;;;;;-0.19;89.57;99088.72;3552177;27;20069;-47
2021/04/05 00:44:47;;;;;;;41.78;20.58;;;;;;;-0.17;89.73;99088.81;3551834;27;20042;-47
2021/04/05 00:46:28;;;;;;;41.95;21.52;;;;;;;-0.17;89.73;99096.44;3550026;27;20054;-47
2021/04/05 00:48:11;;;;;;;40.92;19.80;;;;;;;-0.17;89.64;99091.34;3553461;27;20046;-47
2021/04/05 00:49:52;;;;;;;41.78;22.00;;;;;;;-0.18;89.42;99089.63;3550386;27;20426;-46
2021/04/05 00:51:35;;;;;;;39.70;20.98;;;;;;;-0.19;89.65;99090.41;3553385;27;20427;-47
2021/04/05 00:53:19;;;;;;;42.10;20.65;;;;;;;-0.21;89.28;99085.25;3550038;27;20571;-47
2021/04/05 00:55:00;;;;;;;;;;;;;;;-0.21;89.18;99090.34;3552357;27;20103;-51
2021/04/05 00:56:42;;;;;;;34.60;18.17;;;;;;;-0.21;89.40;99081.81;3552015;27;19970;-54
2021/04/05 00:58:25;;;;;;;37.63;20.02;;;;;;;-0.22;89.11;99080.06;3550448;27;20644;-53
2021/04/05 01:00:11;;;;;;;37.55;19.58;;;;;;;-0.24;89.01;99081.66;3539278;28;20047;-51
2021/04/05 01:01:53;;;;;;;39.92;20.67;;;;;;;-0.27;88.47;99084.97;3547057;27;20043;-51
2021/04/05 01:03:38;;;;;;;38.33;20.45;;;;;;;-0.28;88.91;99077.25;3553413;27;20095;-53
2021/04/05 01:05:19;;;;;;;;;;;;;;;-0.29;88.56;99078.91;3551104;27;20054;-51
2021/04/05 01:07:00;;;;;;;41.67;19.70;;;;;;;-0.30;88.51;99074.63;3552142;27;19962;-51
2021/04/05 01:08:42;;;;;;;41.08;20.80;;;;;;;-0.32;88.38;99076.22;3553679;27;20067;-53
2021/04/05 01:10:24;;;;;;;41.78;19.77;;;;;;;-0.34;88.31;99086.34;3550201;27;20043;-50
2021/04/05 01:12:07;;;;;;;37.33;20.30;;;;;;;-0.38;88.19;99081.00;3553314;27;20131;-50
2021/04/05 01:13:49;;;;;;;40.80;20.23;;;;;;;-0.40;88.12;99074.97;3548531;27;20070;-51
2021/04/05 01:15:30;;;;;;;38.78;19.35;;;;;;;-0.41;88.08;99073.22;3553044;27;20077;-53
2021/04/05 01:17:13;;;;;;;39.00;19.27;;;;;;;-0.44;87.80;99073.97;3550436;27;20043;-49
2021/04/05 01:18:56;;;;;;;36.85;19.02;;;;;;;-0.45;87.18;99073.88;3551610;27;20063;-51
2021/04/05 01:20:38;;;;;;;38.03;19.00;;;;;;;-0.49;86.21;99075.41;3552378;27;20078;-49
2021/04/05 01:22:20;;;;;;;42.15;19.30;;;;;;;-0.49;86.40;99074.56;3549605;27;20275;-50
2021/04/05 01:24:01;;;;;;;36.25;19.52;;;;;;;-0.51;86.78;99073.59;3553540;27;20327;-49
2021/04/05 01:25:43;;;;;;;44.05;20.73;;;;;;;-0.54;86.73;99074.31;3551097;27;20110;-49
2021/04/05 01:27:24;;;;;;;41.63;20.13;;;;;;;-0.57;86.77;99071.63;3552714;27;20503;-49
2021/04/05 01:29:06;;;;;;;40.50;19.52;;;;;;;-0.58;87.17;99072.44;3551354;27;20046;-51
2021/04/05 01:30:49;;;;;;;44.10;19.75;;;;;;;-0.60;87.47;99069.81;3551280;27;20096;-50
2021/04/05 01:32:30;;;;;;;40.78;19.85;;;;;;;-0.60;87.65;99068.94;3552029;27;20104;-49
2021/04/05 01:34:12;;;;;;;38.38;19.10;;;;;;;-0.61;87.91;99064.63;3549780;27;20187;-50
2021/04/05 01:35:56;;;;;;;38.10;19.92;;;;;;;-0.62;87.84;99068.88;3553239;27;20058;-51
2021/04/05 01:37:38;;;;;;;38.95;20.70;;;;;;;-0.64;87.87;99070.47;3549494;27;20567;-51
2021/04/05 01:39:19;;;;;;;38.60;19.80;;;;;;;-0.64;87.78;99067.03;3551975;27;20070;-50
2021/04/05 01:41:02;;;;;;;43.85;20.13;;;;;;;-0.68;88.02;99066.00;3550643;27;20058;-51
2021/04/05 01:42:43;;;;;;;36.10;18.77;;;;;;;-0.72;87.98;99062.44;3549833;27;20047;-49
2021/04/05 01:44:25;;;;;;;42.95;20.02;;;;;;;-0.77;87.51;99056.25;3553017;27;20051;-50
2021/04/05 01:46:08;;;;;;;35.15;18.83;;;;;;;-0.79;87.93;99055.31;3549379;27;20059;-48
2021/04/05 01:47:49;;;;;;;32.70;16.50;;;;;;;-0.81;87.55;99056.91;3552969;27;20043;-53
2021/04/05 01:49:32;;;;;;;37.22;18.35;;;;;;;-0.83;87.32;99053.41;3550590;27;20081;-50
2021/04/05 01:51:16;;;;;;;36.50;18.17;;;;;;;-0.85;86.49;99051.59;3551890;27;20051;-51
2021/04/05 01:53:02;;;;;;;34.67;18.98;;;;;;;-0.88;86.42;99049.78;3553292;27;20050;-50
2021/04/05 01:54:43;;;;;;;40.80;20.27;;;;;;;-0.89;86.72;99047.16;3551648;27;20066;-50
2021/04/05 01:56:25;;;;;;;46.65;21.67;;;;;;;-0.92;86.90;99053.84;3552879;27;20500;-50
2021/04/05 01:58:06;;;;;;;47.97;21.17;;;;;;;-0.94;86.75;99050.34;3551427;27;20051;-50
2021/04/05 01:59:48;;;;;;;45.65;21.90;;;;;;;-0.94;87.14;99046.91;3553145;27;20046;-51
2021/04/05 02:01:31;;;;;;;49.30;22.55;;;;;;;-0.94;87.40;99044.38;3549383;27;20054;-50
2021/04/05 02:03:13;;;;;;;42.58;22.30;;;;;;;-0.94;87.64;99046.91;3550791;27;20058;-51
2021/04/05 02:04:55;;;;;;;43.65;21.50;;;;;;;-0.96;87.51;99046.88;3551478;27;20558;-50
2021/04/05 02:06:37;;;;;;;48.03;23.50;;;;;;;-0.98;87.77;99050.97;3549311;27;20047;-50
2021/04/05 02:08:22;;;;;;;47.03;24.02;;;;;;;-0.99;88.03;99046.72;3552752;27;20504;-49
2021/04/05 02:10:09;;;;;;;49.63;24.15;;;;;;;-1.02;88.07;99043.16;3551948;27;20091;-45
2021/04/05 02:11:51;;;;;;;52.30;24.98;;;;;;;-1.04;88.28;99044.75;3552291;27;20518;-46
2021/04/05 02:13:33;;;;;;;48.13;24.05;;;;;;;-1.07;88.64;99040.34;3548281;27;20055;-45
2021/04/05 02:15:16;;;;;;;54.50;26.90;;;;;;;-1.08;88.75;99047.91;3551321;27;20051;-45
2021/04/05 02:16:58;;;;;;;58.83;26.77;;;;;;;-1.14;88.74;99051.03;3552570;27;20054;-45
2021/04/05 02:18:39;;;;;;;58.63;27.48;;;;;;;-1.15;88.87;99046.75;3549126;27;20091;-46
2021/04/05 02:20:21;;;;;;;62.33;29.00;;;;;;;-1.17;89.31;99053.41;3552737;27;20503;-45
2021/04/05 02:22:03;;;;;;;60.35;26.88;;;;;;;-1.17;89.42;99054.31;3548752;27;20043;-46
2021/04/05 02:23:47;;;;;;;52.10;24.25;;;;;;;-1.18;89.41;99044.06;3552451;27;20133;-45
2021/04/05 02:25:32;;;;;;;47.78;24.08;;;;;;;-1.20;89.44;99046.53;3549717;27;20043;-46
2021/04/05 02:27:13;;;;;;;45.90;20.85;;;;;;;-1.19;89.57;99043.19;3549272;27;20100;-46
2021/04/05 02:29:01;;;;;;;47.92;21.63;;;;;;;-1.18;89.94;99050.00;3552764;27;20497;-50
2021/04/05 02:30:42;;;;;;;53.90;23.92;;;;;;;-1.17;89.93;99053.41;3549414;27;20410;-50
2021/04/05 02:32:23;;;;;;;50.88;23.98;;;;;;;-1.17;89.95;99051.78;3552599;27;20055;-52
2021/04/05 02:34:06;;;;;;;46.13;22.77;;;;;;;-1.17;89.86;99053.41;3551349;27;20081;-51
2021/04/05 02:35:48;;;;;;;49.25;22.88;;;;;;;-1.21;89.94;99043.91;3550901;27;20078;-50
2021/04/05 02:37:29;;;;;;;45.88;22.05;;;;;;;-1.21;89.46;99047.31;3550304;27;20137;-50
2021/04/05 02:39:12;;;;;;;46.75;22.92;;;;;;;-1.20;89.81;99053.28;3551196;27;20046;-53
2021/04/05 02:40:53;;;;;;;46.55;21.63;;;;;;;-1.20;89.53;99045.66;3551819;27;20051;-51
2021/04/05 02:42:35;;;;;;;49.70;25.15;;;;;;;-1.20;89.86;99046.53;3549277;27;20054;-50
2021/04/05 02:44:18;;;;;;;47.88;23.30;;;;;;;-1.19;89.81;99044.84;3552210;27;20046;-53
2021/04/05 02:46:00;;;;;;;55.60;26.17;;;;;;;-1.19;89.55;99043.19;3548685;27;20046;-52
2021/04/05 02:47:42;;;;;;;61.30;27.33;;;;;;;-1.17;89.51;99041.59;3550672;27;20047;-54
2021/04/05 02:49:24;;;;;;;62.97;29.50;;;;;;;-1.17;89.67;99039.03;3553097;27;20070;-51
2021/04/05 02:51:07;;;;;;;63.83;29.80;;;;;;;-1.18;89.56;99032.19;3547389;27;20077;-51
2021/04/05 02:52:49;;;;;;;65.43;28.17;;;;;;;-1.16;89.25;99039.91;3551965;27;20078;-50
2021/04/05 02:54:32;;;;;;;66.78;30.08;;;;;;;-1.17;89.25;99035.59;3548913;27;20075;-51
2021/04/05 02:56:14;;;;;;;62.95;29.83;;;;;;;-1.19;89.53;99035.56;3552451;27;20050;-53
2021/04/05 02:57:56;;;;;;;59.67;27.05;;;;;;;-1.18;88.86;99038.97;3548974;27;20081;-50
2021/04/05 02:59:38;;;;;;;55.15;24.13;;;;;;;-1.18;88.48;99031.34;3550537;27;20047;-52
2021/04/05 03:01:20;;;;;;;62.97;27.73;;;;;;;-1.20;88.33;99031.25;3550733;27;20514;-51
2021/04/05 03:03:02;;;;;;;65.78;29.80;;;;;;;-1.18;88.69;99036.41;3548921;27;20055;-52
2021/04/05 03:04:44;;;;;;;61.65;27.27;;;;;;;-1.18;88.79;99022.00;3552480;27;20075;-52
2021/04/05 03:06:28;;;;;;;64.70;28.35;;;;;;;-1.15;88.93;99022.19;3549869;27;20123;-51
2021/04/05 03:08:10;;;;;;;69.72;29.50;;;;;;;-1.14;89.35;99023.91;3552139;27;20077;-45
2021/04/05 03:09:52;;;;;;;66.32;30.00;;;;;;;-1.14;89.02;99023.91;3549303;27;20115;-46
2021/04/05 03:11:35;;;;;;;63.80;30.70;;;;;;;-1.14;88.97;99025.59;3549662;27;20495;-45
2021/04/05 03:13:17;;;;;;;71.75;31.95;;;;;;;-1.17;88.53;99022.88;3549994;27;20073;-45
2021/04/05 03:14:59;;;;;;;82.68;33.00;;;;;;;-1.23;88.50;99018.38;3548718;27;20126;-45
2021/04/05 03:16:41;;;;;;;62.25;31.60;;;;;;;-1.27;88.36;99026.66;3552268;27;20059;-45
2021/04/05 03:18:24;;;;;;;67.30;31.55;;;;;;;-1.29;88.58;99015.53;3550802;27;20043;-45
2021/04/05 03:20:09;;;;;;;67.07;31.65;;;;;;;-1.31;88.77;99022.22;3551650;27;20095;-45
2021/04/05 03:21:51;;;;;;;72.22;31.48;;;;;;;-1.32;88.99;99015.38;3551254;27;20414;-45
2021/04/05 03:23:33;;;;;;;66.28;30.70;;;;;;;-1.31;89.22;99018.00;3551326;27;20047;-45
2021/04/05 03:25:17;;;;;;;75.40;34.97;;;;;;;-1.31;89.67;99020.53;3551970;27;20054;-45
2021/04/05 03:26:59;;;;;;;81.00;34.67;;;;;;;-1.30;89.84;99017.19;3548726;27;20043;-53
2021/04/05 03:28:40;;;;;;;77.50;33.70;;;;;;;-1.29;90.02;99018.94;3552173;27;20055;-52
2021/04/05 03:30:25;;;;;;;65.57;30.50;;;;;;;-1.29;90.06;99007.91;3550801;27;20051;-54
2021/04/05 03:32:07;;;;;;;67.93;28.88;;;;;;;-1.29;89.73;99013.84;3550766;27;20531;-53
2021/04/05 03:33:54;;;;;;;66.93;29.58;;;;;;;-1.30;89.61;99017.19;3551375;27;20050;-50
2021/04/05 03:35:40;;;;;;;61.97;28.33;;;;;;;-1.31;89.51;99012.91;3548843;27;20050;-51
2021/04/05 03:37:23;;;;;;;66.43;27.88;;;;;;;-1.28;89.54;99009.63;3537907;28;20080;-52
2021/04/05 03:39:05;;;;;;;68.90;29.10;;;;;;;-1.26;89.66;99009.72;3545111;27;20526;-52
2021/04/05 03:40:47;;;;;;;64.07;27.42;;;;;;;-1.24;89.60;99011.56;3551465;27;20042;-53
2021/04/05 03:42:34;;;;;;;75.40;29.77;;;;;;;-1.22;89.58;99017.59;3549031;27;20178;-51
2021/04/05 03:44:25;;;;;;;66.70;28.40;;;;;;;-1.21;89.86;99006.59;3549757;27;20043;-53
2021/04/05 03:46:15;;;;;;;62.40;26.60;;;;;;;-1.17;89.93;98999.97;3563893;27;20082;-50
2021/04/05 03:48:04;;;;;;;63.95;28.15;;;;;;;-1.16;89.67;99005.16;3554585;27;20070;-51
2021/04/05 03:49:50;;;;;;;63.33;28.48;;;;;;;-1.12;89.98;99006.16;3551474;27;20051;-53
2021/04/05 03:51:37;;;;;;;69.00;31.58;;;;;;;-1.11;89.93;99002.84;3549154;27;20495;-54
2021/04/05 03:53:25;;;;;;;69.78;31.00;;;;;;;-1.08;89.99;99004.66;3548488;27;20214;-52
2021/04/05 03:55:09;;;;;;;89.57;35.05;;;;;;;-1.06;90.17;99003.94;3551436;27;20078;-52
2021/04/05 03:56:53;;;;;;;89.30;37.42;;;;;;;-1.03;90.13;99000.66;3548336;27;20095;-52
2021/04/05 03:58:36;;;;;;;68.70;31.33;;;;;;;-0.99;90.31;99010.22;3551343;27;20187;-52
2021/04/05 04:00:21;;;;;;;;;;;;;;;-0.96;90.23;99007.78;3549101;27;20530;-52
2021/04/05 04:02:07;;;;;;;70.78;29.63;;;;;;;-0.91;90.48;99006.34;3550955;27;19996;-51
2021/04/05 04:03:57;;;;;;;74.57;33.80;;;;;;;-0.87;90.31;99007.34;3552624;27;20054;-53
2021/04/05 04:05:41;;;;;;;73.05;32.55;;;;;;;-0.82;90.50;99004.22;3550641;27;20492;-51
2021/04/05 04:07:27;;;;;;;69.85;30.52;;;;;;;-0.79;90.65;99001.84;3554381;27;20051;-53
2021/04/05 04:09:10;;;;;;;68.70;30.33;;;;;;;-0.75;90.51;99000.31;3549660;27;20047;-51
2021/04/05 04:10:54;;;;;;;67.65;31.60;;;;;;;-0.71;90.25;99002.22;3551964;27;20568;-54
2021/04/05 04:12:39;;;;;;;85.82;36.42;;;;;;;-0.69;90.42;98998.06;3554193;27;20074;-54
2021/04/05 04:14:22;;;;;;;97.82;39.13;;;;;;;-0.66;90.45;99003.31;3549452;27;20057;-51
2021/04/05 04:16:05;;;;;;;104.60;41.40;;;;;;;-0.63;90.47;98995.78;3553965;27;20411;-54
2021/04/05 04:17:47;;;;;;;94.70;37.80;;;;;;;-0.62;90.42;98989.03;3551749;27;20072;-54
2021/04/05 04:19:29;;;;;;;92.80;37.85;;;;;;;-0.55;90.63;98993.63;3553774;27;20089;-45
2021/04/05 04:21:13;;;;;;;75.25;34.20;;;;;;;-0.50;90.43;98996.38;3551104;27;20047;-46
2021/04/05 04:22:57;;;;;;;56.38;28.35;;;;;;;-0.46;90.53;98994.03;3550791;27;20058;-45
2021/04/05 04:24:39;;;;;;;69.05;29.10;;;;;;;-0.42;90.47;98992.50;3553865;27;20047;-46
2021/04/05 04:26:20;;;;;;;57.08;26.20;;;;;;;-0.39;90.43;98987.56;3550410;27;20074;-45
2021/04/05 04:28:03;;;;;;;54.55;27.00;;;;;;;-0.36;90.28;98992.78;3554158;27;20075;-47
2021/04/05 04:29:52;;;;;;;51.28;24.95;;;;;;;-0.31;90.27;98993.84;3550596;27;20051;-46
2021/04/05 04:31:33;;;;;;;55.63;24.73;;;;;;;-0.27;90.21;98993.22;3551936;27;20467;-53
2021/04/05 04:33:15;;;;;;;43.00;22.23;;;;;;;-0.23;89.91;98991.69;3552468;27;20058;-53
2021/04/05 04:34:57;;;;;;;38.47;18.33;;;;;;;-0.20;89.64;98979.06;3550443;27;20043;-53
2021/04/05 04:36:38;;;;;;;44.28;21.15;;;;;;;-0.16;89.53;98978.41;3553548;27;20050;-51
2021/04/05 04:38:21;;;;;;;50.33;22.05;;;;;;;-0.11;89.54;98981.13;3550046;27;20499;-52
2021/04/05 04:40:03;;;;;;;50.80;22.23;;;;;;;-0.08;89.54;98973.63;3553965;27;20046;-54
2021/04/05 04:41:46;;;;;;;46.03;20.88;;;;;;;-0.04;89.29;98975.50;3550270;27;20498;-55
2021/04/05 04:43:28;;;;;;;58.42;24.08;;;;;;;-0.01;89.21;98973.09;3551951;27;20046;-54
2021/04/05 04:45:11;;;;;;;54.70;24.45;;;;;;;0.03;89.44;98980.06;3552325;27;20061;-53
2021/04/05 04:46:53;;;;;;;59.00;23.75;;;;;;;0.07;89.30;98979.44;3550127;27;20081;-53
2021/04/05 04:48:34;;;;;;;66.80;28.65;;;;;;;0.11;89.45;98976.19;3554077;27;20046;-54
2021/04/05 04:50:18;;;;;;;67.15;28.30;;;;;;;0.15;89.42;98979.75;3550148;27;20525;-51
2021/04/05 04:51:59;;;;;;;73.35;30.83;;;;;;;0.18;89.10;98975.66;3553040;27;20419;-54
2021/04/05 04:53:41;;;;;;;70.35;30.20;;;;;;;0.22;88.90;98974.09;3551851;27;20491;-53
2021/04/05 04:55:24;;;;;;;80.03;31.23;;;;;;;0.26;89.16;98978.56;3551706;27;20073;-55
2021/04/05 04:57:05;;;;;;;73.55;31.23;;;;;;;0.30;88.95;98967.66;3553665;27;20051;-53
2021/04/05 04:58:47;;;;;;;69.22;30.27;;;;;;;0.36;89.12;98969.59;3550202;27;20050;-55
2021/04/05 05:00:33;;;;;;;68.78;28.88;;;;;;;0.47;89.21;98970.06;3553591;27;20504;-52
2021/04/05 05:02:14;;;;;;;79.88;28.98;;;;;;;0.57;88.86;98961.97;3549884;27;20078;-53
2021/04/05 05:03:58;;;;;;;68.00;29.83;;;;;;;0.72;89.33;98956.63;3551745;27;20134;-54
2021/04/05 05:05:41;;;;;;;70.68;29.35;;;;;;;0.87;88.74;98958.94;3551972;27;20472;-52
2021/04/05 05:07:24;;;;;;;69.63;31.95;;;;;;;1.03;88.67;98952.78;3549982;27;20109;-57
2021/04/05 05:09:06;;;;;;;62.13;28.13;;;;;;;1.20;88.56;98959.41;3553420;27;20054;-59
2021/04/05 05:10:47;;;;;;;62.83;32.58;;;;;;;1.35;88.18;98954.91;3549840;27;20050;-60
2021/04/05 05:12:30;;;;;;;60.53;27.33;;;;;;;1.54;87.68;98959.03;3553154;27;20055;-60
2021/04/05 05:14:15;;;;;;;53.83;22.17;;;;;;;1.63;86.27;98966.16;3547761;27;20043;-59
2021/04/05 05:15:56;;;;;;;44.38;21.02;;;;;;;1.74;85.94;98956.34;3550794;27;20163;-57
2021/04/05 05:17:41;;;;;;;41.30;19.60;;;;;;;1.88;85.71;98955.19;3552917;27;20043;-57
2021/04/05 05:19:22;;;;;;;38.97;18.52;;;;;;;2.03;85.80;98954.84;3552345;27;20046;-57
2021/04/05 05:21:08;;;;;;;41.55;19.00;;;;;;;2.18;85.11;98951.09;3553324;27;20042;-56
2021/04/05 05:22:53;;;;;;;32.67;15.95;;;;;;;2.29;84.90;98949.81;3549886;27;20050;-56
2021/04/05 05:24:36;;;;;;;34.65;17.25;;;;;;;2.29;84.46;98952.38;3552292;27;20046;-56
2021/04/05 05:26:20;;;;;;;29.15;15.10;;;;;;;2.29;84.15;98953.22;3553723;27;20046;-56
2021/04/05 05:28:04;;;;;;;25.48;13.73;;;;;;;2.26;82.71;98952.25;3549683;27;20047;-56
2021/04/05 05:29:46;;;;;;;;;;;;;;;2.23;82.88;98949.56;3553745;27;20084;-56
2021/04/05 05:31:28;;;;;;;26.88;12.63;;;;;;;2.24;83.41;98948.78;3549756;27;20345;-56
2021/04/05 05:33:10;;;;;;;26.75;13.40;;;;;;;2.23;83.52;98950.44;3552322;27;20046;-57
2021/04/05 05:34:51;;;;;;;20.05;9.48;;;;;;;2.25;83.64;98953.06;3550826;27;20050;-56
2021/04/05 05:36:32;;;;;;;26.75;13.18;;;;;;;2.22;82.95;98943.59;3549936;27;20050;-55
2021/04/05 05:38:14;;;;;;;24.63;12.07;;;;;;;2.21;83.15;98943.53;3553054;27;20050;-56
2021/04/05 05:39:56;;;;;;;32.70;13.73;;;;;;;2.20;82.81;98945.22;3549922;27;20046;-55
2021/04/05 05:41:51;;;;;;;27.60;13.82;;;;;;;2.20;82.63;98939.22;3553368;27;20057;-56
2021/04/05 05:43:38;;;;;;;28.35;13.23;;;;;;;2.18;83.00;98940.88;3549703;27;20058;-57
2021/04/05 05:45:25;;;;;;;33.50;14.57;;;;;;;2.16;83.06;98937.38;3551135;27;20094;-48
2021/04/05 05:47:10;;;;;;;26.83;15.23;;;;;;;2.12;83.18;98950.06;3552670;27;20511;-50
2021/04/05 05:48:59;;;;;;;33.88;17.25;;;;;;;2.05;81.94;98937.88;3549355;27;20046;-48
2021/04/05 05:50:49;;;;;;;41.45;18.35;;;;;;;1.99;82.22;98934.22;3553410;27;20054;-47
2021/04/05 05:52:45;;;;;;;33.47;16.98;;;;;;;1.93;82.74;98927.19;3548984;27;20308;-48
2021/04/05 05:54:39;;;;;;;30.98;15.93;;;;;;;1.93;83.14;98929.75;3549565;27;20099;-48
2021/04/05 05:56:32;;;;;;;34.55;18.80;;;;;;;2.04;84.18;98922.47;3552804;27;20055;-50
2021/04/05 05:58:17;;;;;;;37.15;18.45;;;;;;;2.22;83.71;98919.66;3551489;27;20427;-47
2021/04/05 06:00:06;;;;;;;35.40;18.52;;;;;;;2.41;83.36;98923.75;3551445;27;20066;-47
2021/04/05 06:01:57;;;;;;;37.75;17.25;;;;;;;2.53;82.17;98921.59;3552622;27;20103;-48
2021/04/05 06:03:51;;;;;;;34.53;17.30;;;;;;;2.66;81.47;98910.94;3549382;27;20043;-48
2021/04/05 06:05:42;;;;;;;27.90;14.77;;;;;;;2.81;81.49;98920.81;3552907;27;20420;-48
2021/04/05 06:07:32;;;;;;;34.45;17.42;;;;;;;2.88;80.81;98915.06;3551553;27;20467;-48
2021/04/05 06:09:20;;;;;;;30.92;16.95;;;;;;;3.07;81.41;98916.53;3551946;27;20042;-47
2021/04/05 06:11:17;;;;;;;35.05;17.27;;;;;;;3.19;80.15;98913.47;3552166;27;20459;-49
2021/04/05 06:13:08;;;;;;;34.60;17.10;;;;;;;3.35;80.36;98913.91;3547780;27;20534;-51
2021/04/05 06:14:59;;;;;;;28.08;12.98;;;;;;;3.47;78.89;98911.72;3550917;27;20050;-51
2021/04/05 06:16:49;;;;;;;24.88;12.57;;;;;;;3.59;78.78;98911.22;3552597;27;20111;-48
2021/04/05 06:18:40;;;;;;;27.40;14.90;;;;;;;3.67;78.53;98914.03;3549486;27;20051;-50
2021/04/05 06:20:26;;;;;;;24.60;12.52;;;;;;;3.79;77.35;98914.38;3553013;27;20046;-49
2021/04/05 06:22:19;;;;;;;30.30;13.73;;;;;;;3.98;78.18;98906.38;3549578;27;20050;-51
2021/04/05 06:24:03;;;;;;;20.80;10.55;;;;;;;4.12;76.73;98904.16;3551423;27;20055;-50
2021/04/05 06:26:14;;;;;;;19.10;10.88;;;;;;;4.31;76.43;98902.94;3538288;28;20515;-48
2021/04/05 06:28:04;;;;;;;20.52;11.18;;;;;;;4.46;76.06;98901.59;3548141;27;20297;-48
2021/04/05 06:30:04;;;;;;;16.30;9.40;;;;;;;4.63;75.06;98897.75;3550430;27;20046;-49
2021/04/05 06:31:59;;;;;;;18.75;9.57;;;;;;;4.73;73.06;98892.00;3552080;27;20047;-50
2021/04/05 06:33:48;;;;;;;16.65;8.85;;;;;;;4.92;73.25;98895.91;3549421;27;20050;-49
2021/04/05 06:35:55;;;;;;;14.43;7.50;;;;;;;5.09;73.02;98897.97;3551576;27;20047;-50
2021/04/05 06:37:42;;;;;;;16.27;7.97;;;;;;;5.24;73.11;98898.34;3552060;27;20065;-49
2021/04/05 06:39:26;;;;;;;15.65;7.97;;;;;;;5.27;71.07;98902.66;3549076;27;20039;-50
2021/04/05 06:41:17;;;;;;;;;;;;;;;5.39;72.68;98904.66;3552978;27;20051;-50
2021/04/05 06:43:26;;;;;;;15.20;6.88;;;;;;;5.64;71.21;98898.31;3549713;27;19969;-53
2021/04/05 06:45:27;;;;;;;12.02;5.22;;;;;;;5.79;72.17;98890.06;3548999;27;20076;-50
2021/04/05 06:47:29;;;;;;;12.50;6.78;;;;;;;5.87;70.29;98889.38;3552058;27;20057;-53
2021/04/05 06:49:27;;;;;;;8.75;5.78;;;;;;;5.95;66.81;98886.94;3550346;27;20073;-51
2021/04/05 06:51:22;;;;;;;11.60;5.75;;;;;;;6.08;65.62;98888.03;3548921;27;20499;-50
2021/04/05 06:53:39;;;;;;;9.55;6.10;;;;;;;6.28;65.33;98888.44;3552454;27;20047;-52
2021/04/05 06:55:35;;;;;;;10.32;5.57;;;;;;;6.41;63.38;98887.78;3533035;27;20523;-50
2021/04/05 06:57:21;;;;;;;13.68;6.90;;;;;;;6.57;63.16;98881.19;3548772;27;20503;-50
2021/04/05 06:59:23;;;;;;;11.27;6.35;;;;;;;6.77;65.41;98888.38;3551991;27;20047;-52
2021/04/05 07:01:32;;;;;;;15.45;6.10;;;;;;;6.84;64.69;98887.63;3550363;27;20495;-49
2021/04/05 07:03:38;;;;;;;11.23;4.57;;;;;;;6.94;63.25;98889.53;3548663;27;20074;-53
2021/04/05 07:05:35;;;;;;;16.38;7.57;;;;;;;7.03;59.80;98887.09;3550610;27;20039;-48
2021/04/05 07:07:26;;;;;;;18.38;7.60;;;;;;;7.17;63.72;98884.72;3551715;27;20057;-52
2021/04/05 07:09:16;;;;;;;10.75;5.43;;;;;;;7.33;56.44;98880.66;3549715;27;20085;-52
2021/04/05 07:11:06;;;;;;;12.75;6.95;;;;;;;7.48;60.22;98882.59;3551675;27;20055;-49
2021/04/05 07:13:01;;;;;;;22.05;9.07;;;;;;;7.53;57.14;98875.78;3549912;27;20422;-50
2021/04/05 07:14:51;;;;;;;25.95;9.98;;;;;;;7.75;62.71;98878.63;3543131;27;20322;-49
2021/04/05 07:16:49;;;;;;;20.30;8.77;;;;;;;7.99;55.34;98878.06;3552188;27;20051;-49
2021/04/05 07:18:47;;;;;;;22.38;5.80;;;;;;;8.13;52.28;98867.84;3548409;27;20079;-50
2021/04/05 07:20:35;;;;;;;10.07;5.95;;;;;;;8.25;52.46;98872.28;3549127;27;20074;-49
2021/04/05 07:22:29;;;;;;;13.50;7.40;;;;;;;8.34;50.93;98868.09;3551986;27;20053;-50
2021/04/05 07:24:20;;;;;;;13.95;7.70;;;;;;;8.43;55.13;98864.72;3548621;27;20095;-50
2021/04/05 07:26:14;;;;;;;16.80;6.18;;;;;;;8.51;54.22;98860.47;3549767;27;20054;-52
2021/04/05 07:28:05;;;;;;;11.83;5.13;;;;;;;8.57;49.43;98859.66;3552111;27;20046;-53
2021/04/05 07:29:54;;;;;;;9.10;5.20;;;;;;;8.65;48.63;98855.41;3549787;27;20505;-50
2021/04/05 07:31:41;;;;;;;15.25;5.55;;;;;;;8.83;50.11;98857.28;3552090;27;20047;-50
2021/04/05 07:33:32;;;;;;;11.57;5.15;;;;;;;8.96;47.96;98858.25;3549150;27;20049;-50
2021/04/05 07:35:19;;;;;;;9.52;5.10;;;;;;;8.96;46.05;98851.34;3549351;27;20047;-50
2021/04/05 07:37:19;;;;;;;9.07;4.10;;;;;;;8.93;48.16;98853.91;3552427;27;20042;-48
2021/04/05 07:39:07;;;;;;;10.23;4.35;;;;;;;8.72;46.23;98854.63;3550878;27;20427;-50
2021/04/05 07:40:55;;;;;;;7.10;4.45;;;;;;;8.74;50.75;98847.72;3553123;27;20047;-50
2021/04/05 07:42:55;;;;;;;8.60;3.60;;;;;;;8.91;47.90;98853.03;3553501;27;20050;-50
2021/04/05 07:44:45;;;;;;;6.00;3.50;;;;;;;8.77;44.52;98840.00;3550914;27;20042;-50
2021/04/05 07:46:34;;;;;;;5.65;2.97;;;;;;;8.79;43.55;98835.69;3554376;27;20051;-49
2021/04/05 07:48:21;;;;;;;8.50;3.10;;;;;;;8.93;42.56;98835.81;3551378;27;20046;-49
2021/04/05 07:50:09;;;;;;;6.65;2.70;;;;;;;9.01;45.48;98834.97;3551254;27;20415;-50
2021/04/05 07:51:56;;;;;;;5.75;3.15;;;;;;;9.02;44.58;98840.16;3553408;27;20042;-49
2021/04/05 07:53:46;;;;;;;5.15;2.45;;;;;;;9.10;51.18;98833.34;3552922;27;20046;-49
2021/04/05 07:55:29;;;;;;;5.60;2.80;;;;;;;9.27;44.61;98829.97;3554028;27;20058;-49
2021/04/05 07:57:20;;;;;;;4.55;2.05;;;;;;;9.29;42.12;98823.94;3553494;27;20051;-50
2021/04/05 07:59:11;;;;;;;2.85;1.50;;;;;;;9.32;41.82;98825.69;3553099;27;20046;-48
2021/04/05 08:01:02;;;;;;;4.50;2.42;;;;;;;9.32;42.15;98815.34;3540149;28;20073;-50
2021/04/05 08:02:56;;;;;;;7.78;3.33;;;;;;;9.36;46.09;98814.47;3550779;27;20523;-50
2021/04/05 08:04:49;;;;;;;6.55;2.97;;;;;;;9.37;44.25;98805.88;3552385;27;20396;-50
2021/04/05 08:06:36;;;;;;;5.60;3.25;;;;;;;9.19;42.67;98809.25;3553991;27;20107;-50
2021/04/05 08:08:45;;;;;;;6.10;3.33;;;;;;;9.30;45.29;98804.97;3550752;27;21721;-49
2021/04/05 08:10:37;;;;;;;5.93;3.63;;;;;;;9.47;44.04;98802.50;3543080;27;20054;-50